Home > Products > Valid Products > MTR

000
SAUS41 KOKX 302355
MTRMTP
METAR KMTP 302354Z AUTO 22005KT 24/21 A3004 RMK AO1 SLP173 T02390206
10278 20239 55000





000
SAUS41 KOKX 302352
MTRNYC
METAR KNYC 302351Z AUTO 00000KT 10SM CLR 28/19 A3004 RMK AO2 SLP162
T02780189 10322 20278 55001 $





000
SAUS41 KOKX 302255
MTRMTP
METAR KMTP 302254Z AUTO 21005KT 24/20 A3004 RMK AO1 SLP172 T02390200





000
SAUS41 KOKX 302255
MTRMTP
METAR KMTP 302254Z AUTO 21005KT 24/20 A3004 RMK AO1 SLP172 T02390200





000
SAUS41 KOKX 302252
MTRNYC
METAR KNYC 302251Z AUTO VRB03KT 9SM FEW120 29/19 A3003 RMK AO2
SLP159 T02890189 $





000
SAUS41 KOKX 302252
MTRNYC
METAR KNYC 302251Z AUTO VRB03KT 9SM FEW120 29/19 A3003 RMK AO2
SLP159 T02890189 $





000
SAUS41 KOKX 302155
MTRMTP
METAR KMTP 302154Z AUTO VRB05KT 25/20 A3004 RMK AO1 SLP172 T02500200





000
SAUS41 KOKX 302155
MTRMTP
METAR KMTP 302154Z AUTO VRB05KT 25/20 A3004 RMK AO1 SLP172 T02500200





000
SAUS41 KOKX 302152
MTRNYC
METAR KNYC 302151Z AUTO VRB04KT 10SM CLR 29/19 A3004 RMK AO2 SLP161
T02890189 $





000
SAUS41 KOKX 302152
MTRNYC
METAR KNYC 302151Z AUTO VRB04KT 10SM CLR 29/19 A3004 RMK AO2 SLP161
T02890189 $





000
SAUS41 KOKX 302055
MTRMTP
METAR KMTP 302054Z AUTO 22007KT 26/19 A3004 RMK AO1 SLP173 T02610194
58013





000
SAUS41 KOKX 302055
MTRMTP
METAR KMTP 302054Z AUTO 22007KT 26/19 A3004 RMK AO1 SLP173 T02610194
58013





000
SAUS41 KOKX 302053
MTRNYC
METAR KNYC 302051Z AUTO VRB04KT 10SM CLR 29/19 A3004 RMK AO2 SLP163
T02940189 56015 $





000
SAUS41 KOKX 302053
MTRNYC
METAR KNYC 302051Z AUTO VRB04KT 10SM CLR 29/19 A3004 RMK AO2 SLP163
T02940189 56015 $





000
SAUS41 KOKX 301955
MTRMTP
METAR KMTP 301954Z AUTO 20007KT 26/21 A3006 RMK AO1 SLP177 T02610206





000
SAUS41 KOKX 301955
MTRMTP
METAR KMTP 301954Z AUTO 20007KT 26/21 A3006 RMK AO1 SLP177 T02610206





000
SAUS41 KOKX 301953
MTRNYC
METAR KNYC 301951Z AUTO VRB05KT 10SM BKN100 30/18 A3005 RMK AO2
SLP166 T03000183 $





000
SAUS41 KOKX 301953
MTRNYC
METAR KNYC 301951Z AUTO VRB05KT 10SM BKN100 30/18 A3005 RMK AO2
SLP166 T03000183 $





000
SAUS41 KOKX 301855
MTRMTP
METAR KMTP 301854Z AUTO VRB05KT 28/19 A3007 RMK AO1 SLP184 T02780194





000
SAUS41 KOKX 301853
MTRNYC
METAR KNYC 301851Z AUTO 00000KT 10SM CLR 31/18 A3007 RMK AO2 SLP171
T03110178 $





000
SAUS41 KOKX 301757
MTRMTP
METAR KMTP 301754Z AUTO 19005KT 28/21 A3008 RMK AO1 SLP187 T02780206
10283 20233 58012





000
SAUS41 KOKX 301757
MTRMTP
METAR KMTP 301754Z AUTO 19005KT 28/21 A3008 RMK AO1 SLP187 T02780206
10283 20233 58012





000
SAUS41 KOKX 301752
MTRNYC
METAR KNYC 301751Z AUTO VRB03KT 10SM CLR 32/18 A3009 RMK AO2 SLP178
T03170178 10317 20228 58015 $





000
SAUS41 KOKX 301752
MTRNYC
METAR KNYC 301751Z AUTO VRB03KT 10SM CLR 32/18 A3009 RMK AO2 SLP178
T03170178 10317 20228 58015 $





000
SAUS41 KOKX 301655
MTRMTP
METAR KMTP 301654Z AUTO 21006KT 28/21 A3009 RMK AO1 SLP190 T02830206





000
SAUS41 KOKX 301653
MTRNYC
METAR KNYC 301651Z AUTO 10SM BKN070 31/17 A3010 RMK AO2 SLP183
T03060172 $





000
SAUS41 KOKX 301555
MTRMTP
METAR KMTP 301554Z AUTO 24004KT 28/21 A3011 RMK AO1 SLP197 T02780206





000
SAUS41 KOKX 301553
MTRNYC
METAR KNYC 301551Z AUTO 00000KT 10SM CLR 30/18 A3012 RMK AO2 SLP189
T03000183 $





000
SAUS41 KOKX 301456
MTRMTP
METAR KMTP 301454Z AUTO 25006KT 27/19 A3012 RMK AO1 SLP198 T02670189
53001





000
SAUS41 KOKX 301453
MTRNYC
METAR KNYC 301451Z AUTO 00000KT 10SM CLR 28/17 A3013 RMK AO2 SLP193
T02830172 58001 $





000
SAUS41 KOKX 301453
MTRNYC
METAR KNYC 301451Z AUTO 00000KT 10SM CLR 28/17 A3013 RMK AO2 SLP193
T02830172 58001 $





000
SAUS41 KOKX 301355
MTRMTP
METAR KMTP 301354Z AUTO 26006KT 26/19 A3012 RMK AO1 SLP199 T02560189





000
SAUS41 KOKX 301355 COR
MTRNYC
METAR KNYC 301351Z AUTO 26005KT 10SM CLR 25/17 A3014 RMK AO2 SLP196
T02500167 $





000
SAUS41 KOKX 301355 COR
MTRNYC
METAR KNYC 301351Z AUTO 26005KT 10SM CLR 25/17 A3014 RMK AO2 SLP196
T02500167 $





000
SAUS41 KOKX 301353 COR
MTRNYC
METAR KNYC 301351Z AUTO 26005KT 10SM CLR 25/17 A3014 RMK AO2 SLP196
T02500167 $





000
SAUS41 KOKX 301353 COR
MTRNYC
METAR KNYC 301351Z AUTO 26005KT 10SM CLR 25/17 A3014 RMK AO2 SLP196
T02500167 $





000
SAUS41 KOKX 301255
MTRMTP
METAR KMTP 301254Z AUTO 25006KT 24/19 A3011 RMK AO1 SLP196 T02440194





000
SAUS41 KOKX 301255
MTRMTP
METAR KMTP 301254Z AUTO 25006KT 24/19 A3011 RMK AO1 SLP196 T02440194





000
SAUS41 KOKX 301252
MTRNYC
METAR KNYC 301251Z AUTO 25004KT 10SM CLR 24/17 A3013 RMK AO2 SLP192
T02390167 $





000
SAUS41 KOKX 301155
MTRMTP
METAR KMTP 301154Z AUTO 24006KT 23/19 A3011 RMK AO1 SLP197 T02330194
10233 20222 53006





000
SAUS41 KOKX 301155
MTRMTP
METAR KMTP 301154Z AUTO 24006KT 23/19 A3011 RMK AO1 SLP197 T02330194
10233 20222 53006





000
SAUS41 KOKX 301152
MTRNYC
METAR KNYC 301151Z AUTO VRB04KT 10SM CLR 23/17 A3013 RMK AO2 SLP194
T02280167 10233 20222 53006 $





000
SAUS41 KOKX 301152
MTRNYC
METAR KNYC 301151Z AUTO VRB04KT 10SM CLR 23/17 A3013 RMK AO2 SLP194
T02280167 10233 20222 53006 $





000
SAUS41 KOKX 301055
MTRMTP
METAR KMTP 301054Z AUTO 22005KT 22/20 A3011 RMK AO1 SLP195 T02220200





000
SAUS41 KOKX 301055
MTRMTP
METAR KMTP 301054Z AUTO 22005KT 22/20 A3011 RMK AO1 SLP195 T02220200





000
SAUS41 KOKX 301052
MTRNYC
METAR KNYC 301051Z AUTO VRB04KT 10SM CLR 22/16 A3013 RMK AO2 SLP192
T02220161 $





000
SAUS41 KOKX 300955
MTRMTP
METAR KMTP 300954Z AUTO 22004KT 23/19 A3010 RMK AO1 SLP191 T02280194





000
SAUS41 KOKX 300955
MTRMTP
METAR KMTP 300954Z AUTO 22004KT 23/19 A3010 RMK AO1 SLP191 T02280194





000
SAUS41 KOKX 300953
MTRNYC
METAR KNYC 300951Z AUTO 27006KT 10SM CLR 23/16 A3011 RMK AO2 SLP187
T02280161 $





000
SAUS41 KOKX 300855
MTRMTP
METAR KMTP 300854Z AUTO 22004KT 23/19 A3010 RMK AO1 SLP191 T02280194
56008





000
SAUS41 KOKX 300855
MTRMTP
METAR KMTP 300854Z AUTO 22004KT 23/19 A3010 RMK AO1 SLP191 T02280194
56008





000
SAUS41 KOKX 300852
MTRNYC
METAR KNYC 300851Z AUTO VRB05KT 10SM CLR 23/16 A3012 RMK AO2 SLP188
T02280156 55004 $





000
SAUS41 KOKX 300755
MTRMTP
METAR KMTP 300754Z AUTO VRB04KT 23/19 A3010 RMK AO1 SLP191 T02280189





000
SAUS41 KOKX 300755
MTRMTP
METAR KMTP 300754Z AUTO VRB04KT 23/19 A3010 RMK AO1 SLP191 T02280189





000
SAUS41 KOKX 300752
MTRNYC
METAR KNYC 300751Z AUTO 26004KT 10SM CLR 23/16 A3011 RMK AO2 SLP186
T02330156 $





000
SAUS41 KOKX 300655
MTRMTP
METAR KMTP 300654Z AUTO 22005KT 23/19 A3011 RMK AO1 SLP194 T02280189





000
SAUS41 KOKX 300655
MTRMTP
METAR KMTP 300654Z AUTO 22005KT 23/19 A3011 RMK AO1 SLP194 T02280189





000
SAUS41 KOKX 300652
MTRNYC
METAR KNYC 300651Z AUTO 26004KT 10SM CLR 23/15 A3012 RMK AO2 SLP188
T02330150 $





000
SAUS41 KOKX 300555
MTRMTP
METAR KMTP 300554Z AUTO 23005KT 23/18 A3012 RMK AO1 SLP199 T02280183
10228 20228 58004





000
SAUS41 KOKX 300553
MTRNYC
METAR KNYC 300551Z AUTO 00000KT 10SM CLR 23/14 A3013 RMK AO2 SLP192
T02330144 10250 20233 58002 $





000
SAUS41 KOKX 300553
MTRNYC
METAR KNYC 300551Z AUTO 00000KT 10SM CLR 23/14 A3013 RMK AO2 SLP192
T02330144 10250 20233 58002 $





000
SAUS41 KOKX 300455
MTRMTP
METAR KMTP 300454Z AUTO 22005KT 23/18 A3013 RMK AO1 SLP203 T02280183
402720172





000
SAUS41 KOKX 300453
MTRNYC
METAR KNYC 300451Z AUTO VRB05G16KT 10SM CLR 24/14 A3014 RMK AO2
SLP197 T02390144 403060194 $





000
SAUS41 KOKX 300355
MTRMTP
METAR KMTP 300354Z AUTO 22005KT 23/18 A3013 RMK AO1 SLP203 T02280178





000
SAUS41 KOKX 300352
MTRNYC
METAR KNYC 300351Z AUTO VRB05G18KT 10SM CLR 24/15 A3013 RMK AO2
SLP194 T02440150 $





000
SAUS41 KOKX 300255
MTRMTP
METAR KMTP 300254Z AUTO 22005KT 23/18 A3013 RMK AO1 SLP204 T02280178
50002





000
SAUS41 KOKX 300255
MTRMTP
METAR KMTP 300254Z AUTO 22005KT 23/18 A3013 RMK AO1 SLP204 T02280178
50002





000
SAUS41 KOKX 300252
MTRNYC
METAR KNYC 300251Z AUTO VRB04KT 10SM CLR 24/15 A3013 RMK AO2 SLP194
T02440150 50002 $





000
SAUS41 KOKX 300155
MTRMTP
METAR KMTP 300154Z AUTO 22004KT 23/18 A3014 RMK AO1 SLP205 T02280178





000
SAUS41 KOKX 300152
MTRNYC
METAR KNYC 300151Z AUTO VRB03KT 10SM CLR 25/14 A3013 RMK AO2 SLP194
T02500144 $





000
SAUS41 KOKX 300055
MTRMTP
METAR KMTP 300054Z AUTO VRB04KT 23/18 A3013 RMK AO1 SLP204 T02280178





000
SAUS41 KOKX 300052
MTRNYC
METAR KNYC 300051Z AUTO VRB03KT 10SM CLR 24/15 A3013 RMK AO2 SLP194
T02440150 $





000
SAUS41 KOKX 292355
MTRMTP
METAR KMTP 292354Z AUTO 21005KT 23/18 A3013 RMK AO1 SLP202 T02280183
10272 20228 55005





000
SAUS41 KOKX 292355
MTRMTP
METAR KMTP 292354Z AUTO 21005KT 23/18 A3013 RMK AO1 SLP202 T02280183
10272 20228 55005





000
SAUS41 KOKX 292352
MTRNYC
METAR KNYC 292351Z AUTO 00000KT 10SM CLR 25/14 A3013 RMK AO2 SLP193
T02500144 10306 20250 58002 $





000
SAUS41 KOKX 292352
MTRNYC
METAR KNYC 292351Z AUTO 00000KT 10SM CLR 25/14 A3013 RMK AO2 SLP193
T02500144 10306 20250 58002 $





000
SAUS41 KOKX 292255
MTRMTP
METAR KMTP 292254Z AUTO VRB05KT 24/18 A3013 RMK AO1 SLP202 T02390178





000
SAUS41 KOKX 292253
MTRNYC
METAR KNYC 292251Z AUTO 00000KT 10SM CLR 26/14 A3013 RMK AO2 SLP194
T02610144 $





000
SAUS41 KOKX 292253
MTRNYC
METAR KNYC 292251Z AUTO 00000KT 10SM CLR 26/14 A3013 RMK AO2 SLP194
T02610144 $





000
SAUS41 KOKX 292155
MTRMTP
METAR KMTP 292154Z AUTO 21007KT 25/17 A3013 RMK AO1 SLP204 T02500172





000
SAUS41 KOKX 292155
MTRMTP
METAR KMTP 292154Z AUTO 21007KT 25/17 A3013 RMK AO1 SLP204 T02500172





000
SAUS41 KOKX 292152
MTRNYC
METAR KNYC 292151Z AUTO VRB04KT 10SM CLR 27/15 A3013 RMK AO2 SLP193
T02720150 $





000
SAUS41 KOKX 292055
MTRMTP
METAR KMTP 292054Z AUTO 20008KT 180V240 26/18 A3014 RMK AO1 SLP207
T02560178 56015





000
SAUS41 KOKX 292055
MTRMTP
METAR KMTP 292054Z AUTO 20008KT 180V240 26/18 A3014 RMK AO1 SLP207
T02560178 56015





000
SAUS41 KOKX 292053
MTRNYC
METAR KNYC 292051Z AUTO 20005KT 10SM CLR 28/14 A3013 RMK AO2 SLP194
T02830144 56017 $





000
SAUS41 KOKX 291955
MTRMTP
METAR KMTP 291954Z AUTO 19006KT 26/17 A3015 RMK AO1 SLP208 T02560167





000
SAUS41 KOKX 291953
MTRNYC
METAR KNYC 291951Z AUTO 00000KT 10SM CLR 31/12 A3014 RMK AO2 SLP197
T03060122 $





000
SAUS41 KOKX 291855
MTRMTP
METAR KMTP 291854Z AUTO VRB06KT 27/16 A3016 RMK AO1 SLP214 T02720161





000
SAUS41 KOKX 291855
MTRMTP
METAR KMTP 291854Z AUTO VRB06KT 27/16 A3016 RMK AO1 SLP214 T02720161





000
SAUS41 KOKX 291852
MTRNYC
METAR KNYC 291851Z AUTO 00000KT 10SM CLR 30/12 A3016 RMK AO2 SLP202
T03000122 $





000
SAUS41 KOKX 291755
MTRMTP
METAR KMTP 291754Z AUTO 27006KT 27/13 A3019 RMK AO1 SLP222 T02720133
10272 20228 58013





000
SAUS41 KOKX 291755
MTRMTP
METAR KMTP 291754Z AUTO 27006KT 27/13 A3019 RMK AO1 SLP222 T02720133
10272 20228 58013





000
SAUS41 KOKX 291752
MTRNYC
METAR KNYC 291751Z AUTO 00000KT 10SM SCT065 29/12 A3018 RMK AO2
SLP211 T02940117 10306 20206 58018 $





000
SAUS41 KOKX 291752
MTRNYC
METAR KNYC 291751Z AUTO 00000KT 10SM SCT065 29/12 A3018 RMK AO2
SLP211 T02940117 10306 20206 58018 $





000
SAUS41 KOKX 291655
MTRMTP
METAR KMTP 291654Z AUTO 31007KT 26/16 A3021 RMK AO1 SLP228 T02610161





000
SAUS41 KOKX 291655
MTRMTP
METAR KMTP 291654Z AUTO 31007KT 26/16 A3021 RMK AO1 SLP228 T02610161





000
SAUS41 KOKX 291652
MTRNYC
METAR KNYC 291651Z AUTO 00000KT 10SM BKN060 28/12 A3021 RMK AO2
SLP219 T02830117 $





000
SAUS41 KOKX 291555
MTRMTP
METAR KMTP 291554Z AUTO VRB06KT 26/17 A3022 RMK AO1 SLP232 T02610167





000
SAUS41 KOKX 291553
MTRNYC
METAR KNYC 291551Z AUTO VRB04KT 10SM BKN055 27/12 A3023 RMK AO2
SLP226 T02670122 $





000
SAUS41 KOKX 291455
MTRMTP
METAR KMTP 291454Z AUTO VRB05KT 26/17 A3022 RMK AO1 SLP234 T02560167
52002





000
SAUS41 KOKX 291453
MTRNYC
METAR KNYC 291451Z AUTO 00000KT 10SM CLR 26/12 A3024 RMK AO2 SLP229
T02610117 58002 $





000
SAUS41 KOKX 291453
MTRNYC
METAR KNYC 291451Z AUTO 00000KT 10SM CLR 26/12 A3024 RMK AO2 SLP229
T02610117 58002 $





000
SAUS41 KOKX 291355
MTRMTP
METAR KMTP 291354Z AUTO 26004KT 24/17 A3022 RMK AO1 SLP234 T02440172





000
SAUS41 KOKX 291355
MTRMTP
METAR KMTP 291354Z AUTO 26004KT 24/17 A3022 RMK AO1 SLP234 T02440172





000
SAUS41 KOKX 291353
MTRNYC
METAR KNYC 291351Z 28004KT 10SM CLR 24/12 A3024 RMK AO2 SLP230
T02440122 $





000
SAUS41 KOKX 291353
MTRNYC
METAR KNYC 291351Z 28004KT 10SM CLR 24/12 A3024 RMK AO2 SLP230
T02440122 $





000
SAUS41 KOKX 291255
MTRMTP
METAR KMTP 291254Z AUTO 00000KT 24/18 A3022 RMK AO1 SLP232 T02390183





000
SAUS41 KOKX 291255
MTRMTP
METAR KMTP 291254Z AUTO 00000KT 24/18 A3022 RMK AO1 SLP232 T02390183





000
SAUS41 KOKX 291252
MTRNYC
METAR KNYC 291251Z 00000KT 10SM CLR 23/12 A3024 RMK AO2 SLP231
T02280117 $





000
SAUS41 KOKX 291155
MTRMTP
METAR KMTP 291154Z AUTO 00000KT 23/18 A3022 RMK AO1 SLP232 T02280178
10228 20172 52010





000
SAUS41 KOKX 291155
MTRMTP
METAR KMTP 291154Z AUTO 00000KT 23/18 A3022 RMK AO1 SLP232 T02280178
10228 20172 52010





000
SAUS41 KOKX 291152
MTRNYC
METAR KNYC 291151Z 00000KT 10SM CLR 21/13 A3024 RMK AO2 SLP232
T02060128 10217 20194 53009 $





000
SAUS41 KOKX 291152
MTRNYC
METAR KNYC 291151Z 00000KT 10SM CLR 21/13 A3024 RMK AO2 SLP232
T02060128 10217 20194 53009 $





000
SAUS41 KOKX 291055
MTRMTP
METAR KMTP 291054Z AUTO 00000KT 18/17 A3021 RMK AO1 SLP230 T01780167





000
SAUS41 KOKX 291052
MTRNYC
METAR KNYC 291051Z 00000KT 10SM CLR 19/12 A3023 RMK AO2 SLP229
T01940122 $





000
SAUS41 KOKX 291052
MTRNYC
METAR KNYC 291051Z 00000KT 10SM CLR 19/12 A3023 RMK AO2 SLP229
T01940122 $





000
SAUS41 KOKX 290955
MTRMTP
METAR KMTP 290954Z AUTO 00000KT 18/16 A3019 RMK AO1 SLP224 T01780156





000
SAUS41 KOKX 290952
MTRNYC
METAR KNYC 290951Z 00000KT 10SM CLR 20/12 A3021 RMK AO2 SLP221
T02000117 $





000
SAUS41 KOKX 290952
MTRNYC
METAR KNYC 290951Z 00000KT 10SM CLR 20/12 A3021 RMK AO2 SLP221
T02000117 $





000
SAUS41 KOKX 290855
MTRMTP
METAR KMTP 290854Z AUTO 00000KT 21/18 A3019 RMK AO1 SLP222 T02060183
56000





000
SAUS41 KOKX 290855
MTRMTP
METAR KMTP 290854Z AUTO 00000KT 21/18 A3019 RMK AO1 SLP222 T02060183
56000





000
SAUS41 KOKX 290852
MTRNYC
METAR KNYC 290851Z 00000KT 10SM CLR 20/12 A3021 RMK AO2 SLP221
T02000122 53000 $





000
SAUS41 KOKX 290755
MTRMTP
METAR KMTP 290754Z AUTO 00000KT 21/18 A3019 RMK AO1 SLP222 T02060178





000
SAUS41 KOKX 290755
MTRMTP
METAR KMTP 290754Z AUTO 00000KT 21/18 A3019 RMK AO1 SLP222 T02060178





000
SAUS41 KOKX 290752
MTRNYC
METAR KNYC 290751Z 30003KT 10SM CLR 21/13 A3021 RMK AO2 SLP220
T02060128 $





000
SAUS41 KOKX 290655
MTRMTP
METAR KMTP 290654Z AUTO 00000KT 21/17 A3018 RMK AO1 SLP221 T02110172





000
SAUS41 KOKX 290655
MTRMTP
METAR KMTP 290654Z AUTO 00000KT 21/17 A3018 RMK AO1 SLP221 T02110172





000
SAUS41 KOKX 290652
MTRNYC
METAR KNYC 290651Z 00000KT 10SM CLR 21/12 A3021 RMK AO2 SLP221
T02110117 $





000
SAUS41 KOKX 290556
MTRMTP
METAR KMTP 290554Z AUTO 25004KT 22/17 A3019 RMK AO1 SLP222 T02170167
10217 20211 58004





000
SAUS41 KOKX 290552
MTRNYC
METAR KNYC 290551Z 00000KT 10SM CLR 21/11 A3021 RMK AO2 SLP221
T02110111 10250 20200 58004 $





000
SAUS41 KOKX 290552
MTRNYC
METAR KNYC 290551Z 00000KT 10SM CLR 21/11 A3021 RMK AO2 SLP221
T02110111 10250 20200 58004 $





000
SAUS41 KOKX 290456
MTRMTP
METAR KMTP 290454Z AUTO 25003KT 21/17 A3020 RMK AO1 SLP226 T02110167
402560194





000
SAUS41 KOKX 290453
MTRNYC
METAR KNYC 290451Z AUTO 36003KT 10SM CLR 21/11 A3022 RMK AO2 SLP224
T02110111 402780172 $





000
SAUS41 KOKX 290355
MTRMTP
METAR KMTP 290354Z AUTO VRB03KT 22/17 A3021 RMK AO1 SLP229 T02170167





000
SAUS41 KOKX 290352
MTRNYC
METAR KNYC 290351Z AUTO 00000KT 10SM CLR 23/11 A3023 RMK AO2 SLP225
T02280106 $





000
SAUS41 KOKX 290352
MTRNYC
METAR KNYC 290351Z AUTO 00000KT 10SM CLR 23/11 A3023 RMK AO2 SLP225
T02280106 $





000
SAUS41 KOKX 290255
MTRMTP
METAR KMTP 290254Z AUTO 24004KT 22/17 A3020 RMK AO1 SLP227 T02170172
51012





000
SAUS41 KOKX 290255
MTRMTP
METAR KMTP 290254Z AUTO 24004KT 22/17 A3020 RMK AO1 SLP227 T02170172
51012





000
SAUS41 KOKX 290252
MTRNYC
METAR KNYC 290251Z AUTO 00000KT 10SM CLR 23/11 A3022 RMK AO2 SLP226
T02280111 51016 $





000
SAUS41 KOKX 290155
MTRMTP
METAR KMTP 290154Z AUTO 24003KT 21/17 A3019 RMK AO1 SLP223 T02110167





000
SAUS41 KOKX 290152
MTRNYC
METAR KNYC 290151Z AUTO VRB03KT 10SM CLR 24/11 A3022 RMK AO2 SLP224
T02390106 $





000
SAUS41 KOKX 290055
MTRMTP
METAR KMTP 290054Z AUTO 24003KT 21/17 A3018 RMK AO1 SLP219 T02110167





000
SAUS41 KOKX 290055
MTRMTP
METAR KMTP 290054Z AUTO 24003KT 21/17 A3018 RMK AO1 SLP219 T02110167





000
SAUS41 KOKX 290053
MTRNYC
METAR KNYC 290051Z AUTO VRB03KT 10SM CLR 24/11 A3020 RMK AO2 SLP217
T02440106 $





000
SAUS41 KOKX 290053
MTRNYC
METAR KNYC 290051Z AUTO VRB03KT 10SM CLR 24/11 A3020 RMK AO2 SLP217
T02440106 $





000
SAUS41 KOKX 282355
MTRMTP
METAR KMTP 282354Z AUTO 00000KT 22/17 A3017 RMK AO1 SLP214 T02170167
10256 20217 53009





000
SAUS41 KOKX 282355
MTRMTP
METAR KMTP 282354Z AUTO 00000KT 22/17 A3017 RMK AO1 SLP214 T02170167
10256 20217 53009





000
SAUS41 KOKX 282352
MTRNYC
METAR KNYC 282351Z AUTO VRB04KT 10SM FEW060 25/10 A3018 RMK AO2
SLP210 T02500100 10278 20244 53006 $





000
SAUS41 KOKX 282352
MTRNYC
METAR KNYC 282351Z AUTO VRB04KT 10SM FEW060 25/10 A3018 RMK AO2
SLP210 T02500100 10278 20244 53006 $





000
SAUS41 KOKX 282255
MTRMTP
METAR KMTP 282254Z AUTO 21004KT 23/17 A3015 RMK AO1 SLP209 T02280167





000
SAUS41 KOKX 282252
MTRNYC
METAR KNYC 282251Z AUTO 00000KT 10SM SCT060 26/11 A3016 RMK AO2
SLP205 T02560111 $





000
SAUS41 KOKX 282252
MTRNYC
METAR KNYC 282251Z AUTO 00000KT 10SM SCT060 26/11 A3016 RMK AO2
SLP205 T02560111 $





000
SAUS41 KOKX 282155
MTRMTP
METAR KMTP 282154Z AUTO 21004KT 24/17 A3014 RMK AO1 SLP207 T02390167





000
SAUS41 KOKX 282155
MTRMTP
METAR KMTP 282154Z AUTO 21004KT 24/17 A3014 RMK AO1 SLP207 T02390167





000
SAUS41 KOKX 282152
MTRNYC
METAR KNYC 282151Z AUTO VRB05KT 10SM FEW060 27/10 A3015 RMK AO2
SLP202 T02670100 $





000
SAUS41 KOKX 282055
MTRMTP
METAR KMTP 282054Z AUTO VRB04KT 25/16 A3014 RMK AO1 SLP205 T02500161
58010





000
SAUS41 KOKX 282052
MTRNYC
METAR KNYC 282051Z AUTO 29006KT 10SM CLR 27/11 A3016 RMK AO2 SLP203
T02670106 56006 $





000
SAUS41 KOKX 282052
MTRNYC
METAR KNYC 282051Z AUTO 29006KT 10SM CLR 27/11 A3016 RMK AO2 SLP203
T02670106 56006 $





000
SAUS41 KOKX 281955
MTRMTP
METAR KMTP 281954Z AUTO VRB03KT 26/15 A3015 RMK AO1 SLP211 T02560150





000
SAUS41 KOKX 281955
MTRMTP
METAR KMTP 281954Z AUTO VRB03KT 26/15 A3015 RMK AO1 SLP211 T02560150





000
SAUS41 KOKX 281952
MTRNYC
METAR KNYC 281951Z AUTO 00000KT 10SM CLR 28/10 A3016 RMK AO2 SLP202
T02780100 $





000
SAUS41 KOKX 281855
MTRMTP
METAR KMTP 281854Z AUTO 26006KT 26/13 A3016 RMK AO1 SLP211 T02560128





000
SAUS41 KOKX 281855
MTRMTP
METAR KMTP 281854Z AUTO 26006KT 26/13 A3016 RMK AO1 SLP211 T02560128





000
SAUS41 KOKX 281852
MTRNYC
METAR KNYC 281851Z AUTO VRB03KT 10SM CLR 28/10 A3017 RMK AO2 SLP207
T02780100 $





000
SAUS41 KOKX 281852
MTRNYC
METAR KNYC 281851Z AUTO VRB03KT 10SM CLR 28/10 A3017 RMK AO2 SLP207
T02780100 $





000
SAUS41 KOKX 281755
MTRMTP
METAR KMTP 281754Z AUTO 00000KT 25/14 A3017 RMK AO1 SLP215 T02500139
10256 20206 58004





000
SAUS41 KOKX 281755
MTRMTP
METAR KMTP 281754Z AUTO 00000KT 25/14 A3017 RMK AO1 SLP215 T02500139
10256 20206 58004





000
SAUS41 KOKX 281753
MTRNYC
METAR KNYC 281751Z AUTO 00000KT 10SM CLR 27/09 A3018 RMK AO2 SLP209
T02720094 10278 20183 58014 $





000
SAUS41 KOKX 281655
MTRMTP
METAR KMTP 281654Z AUTO VRB04KT 24/14 A3018 RMK AO1 SLP218 T02390139





000
SAUS41 KOKX 281652
MTRNYC
METAR KNYC 281651Z AUTO VRB03KT 10SM CLR 26/09 A3020 RMK AO2 SLP215
T02610094 $





000
SAUS41 KOKX 281555
MTRMTP
METAR KMTP 281554Z AUTO VRB04KT 23/14 A3019 RMK AO1 SLP222 T02330144





000
SAUS41 KOKX 281552
MTRNYC
METAR KNYC 281551Z AUTO VRB03KT 10SM CLR 25/10 A3022 RMK AO2 SLP222
T02500100 $





000
SAUS41 KOKX 281552
MTRNYC
METAR KNYC 281551Z AUTO VRB03KT 10SM CLR 25/10 A3022 RMK AO2 SLP222
T02500100 $





000
SAUS41 KOKX 281455
MTRMTP
METAR KMTP 281454Z AUTO VRB04KT 23/14 A3018 RMK AO1 SLP220 T02280144
51009





000
SAUS41 KOKX 281455
MTRMTP
METAR KMTP 281454Z AUTO VRB04KT 23/14 A3018 RMK AO1 SLP220 T02280144
51009





000
SAUS41 KOKX 281452
MTRNYC
METAR KNYC 281451Z AUTO VRB04KT 10SM CLR 23/11 A3022 RMK AO2 SLP224
T02280106 53005 $





000
SAUS41 KOKX 281452
MTRNYC
METAR KNYC 281451Z AUTO VRB04KT 10SM CLR 23/11 A3022 RMK AO2 SLP224
T02280106 53005 $





000
SAUS41 KOKX 281355
MTRMTP
METAR KMTP 281354Z AUTO 36005KT 22/15 A3017 RMK AO1 SLP217 T02170150





000
SAUS41 KOKX 281352
MTRNYC
METAR KNYC 281351Z AUTO 10SM CLR 21/11 A3021 RMK AO2 SLP222
T02110111 $





000
SAUS41 KOKX 281255
MTRMTP
METAR KMTP 281254Z AUTO 02006KT 21/15 A3016 RMK AO1 SLP213 T02060150





000
SAUS41 KOKX 281255
MTRMTP
METAR KMTP 281254Z AUTO 02006KT 21/15 A3016 RMK AO1 SLP213 T02060150





000
SAUS41 KOKX 281253
MTRNYC
METAR KNYC 281251Z AUTO 00000KT 10SM CLR 20/12 A3021 RMK AO2 SLP219
T02000117 $





000
SAUS41 KOKX 281155
MTRMTP
METAR KMTP 281154Z AUTO 01004KT 21/16 A3015 RMK AO1 SLP210 T02060156
10206 20194 53013





000
SAUS41 KOKX 281155
MTRMTP
METAR KMTP 281154Z AUTO 01004KT 21/16 A3015 RMK AO1 SLP210 T02060156
10206 20194 53013





000
SAUS41 KOKX 281153
MTRNYC
METAR KNYC 281151Z AUTO 00000KT 10SM CLR 18/12 A3020 RMK AO2 SLP218
T01830117 10200 20172 53013 $





000
SAUS41 KOKX 281153
MTRNYC
METAR KNYC 281151Z AUTO 00000KT 10SM CLR 18/12 A3020 RMK AO2 SLP218
T01830117 10200 20172 53013 $





000
SAUS41 KOKX 281055
MTRMTP
METAR KMTP 281054Z AUTO 02003KT 19/15 A3014 RMK AO1 SLP206 T01940150





000
SAUS41 KOKX 281055
MTRMTP
METAR KMTP 281054Z AUTO 02003KT 19/15 A3014 RMK AO1 SLP206 T01940150





000
SAUS41 KOKX 281052
MTRNYC
METAR KNYC 281051Z AUTO 00000KT 10SM CLR 18/12 A3019 RMK AO2 SLP213
T01830117 $





000
SAUS41 KOKX 280955
MTRMTP
METAR KMTP 280954Z AUTO 36003KT 19/16 A3012 RMK AO1 SLP200 T01940156





000
SAUS41 KOKX 280955
MTRMTP
METAR KMTP 280954Z AUTO 36003KT 19/16 A3012 RMK AO1 SLP200 T01940156





000
SAUS41 KOKX 280952
MTRNYC
METAR KNYC 280951Z AUTO 00000KT 10SM CLR 18/12 A3017 RMK AO2 SLP206
T01780117 $





000
SAUS41 KOKX 280855
MTRMTP
METAR KMTP 280854Z AUTO 36005KT 19/14 A3011 RMK AO1 SLP197 T01940144
53001





000
SAUS41 KOKX 280852
MTRNYC
METAR KNYC 280851Z AUTO 30003KT 10SM CLR 19/12 A3016 RMK AO2 SLP205
T01890117 53002 $





000
SAUS41 KOKX 280852
MTRNYC
METAR KNYC 280851Z AUTO 30003KT 10SM CLR 19/12 A3016 RMK AO2 SLP205
T01890117 53002 $





000
SAUS41 KOKX 280757
MTRMTP
METAR KMTP 280754Z AUTO 34006KT 20/14 A3011 RMK AO1 SLP197 T02000144





000
SAUS41 KOKX 280757
MTRMTP
METAR KMTP 280754Z AUTO 34006KT 20/14 A3011 RMK AO1 SLP197 T02000144





000
SAUS41 KOKX 280753
MTRNYC
METAR KNYC 280751Z AUTO 00000KT 10SM CLR 19/12 A3016 RMK AO2 SLP204
T01890117 $





000
SAUS41 KOKX 280657
MTRMTP
METAR KMTP 280654Z AUTO 33005KT 21/15 A3011 RMK AO1 SLP195 T02060150





000
SAUS41 KOKX 280657
MTRMTP
METAR KMTP 280654Z AUTO 33005KT 21/15 A3011 RMK AO1 SLP195 T02060150





000
SAUS41 KOKX 280653
MTRNYC
METAR KNYC 280651Z AUTO 29004KT 10SM CLR 19/12 A3016 RMK AO2 SLP202
T01940117 $





000
SAUS41 KOKX 280653
MTRNYC
METAR KNYC 280651Z AUTO 29004KT 10SM CLR 19/12 A3016 RMK AO2 SLP202
T01940117 $





000
SAUS41 KOKX 280558
MTRMTP
METAR KMTP 280554Z AUTO 34006KT 21/14 A3011 RMK AO1 SLP196 T02060144
10239 20206 50005





000
SAUS41 KOKX 280553
MTRNYC
METAR KNYC 280551Z AUTO 30004KT 10SM CLR 20/12 A3016 RMK AO2 SLP202
T02000117 10233 20200 50007 $





000
SAUS41 KOKX 280455
MTRMTP
METAR KMTP 280454Z AUTO 33008KT 21/14 A3011 RMK AO1 SLP197 T02110144
402670206





000
SAUS41 KOKX 280453
MTRNYC
METAR KNYC 280451Z AUTO VRB03KT 10SM CLR 21/11 A3016 RMK AO2 SLP203
T02060111 402780194 $





000
SAUS41 KOKX 280453
MTRNYC
METAR KNYC 280451Z AUTO VRB03KT 10SM CLR 21/11 A3016 RMK AO2 SLP203
T02060111 402780194 $





000
SAUS41 KOKX 280355
MTRMTP
METAR KMTP 280354Z AUTO 33007KT 22/15 A3011 RMK AO1 SLP195 T02220150





000
SAUS41 KOKX 280353
MTRNYC
METAR KNYC 280351Z AUTO 00000KT 10SM CLR 21/11 A3015 RMK AO2 SLP200
T02110111 $





000
SAUS41 KOKX 280255
MTRMTP
METAR KMTP 280254Z AUTO 32007KT 23/15 A3009 RMK AO1 SLP190 T02280150
51014





000
SAUS41 KOKX 280253
MTRNYC
METAR KNYC 280251Z AUTO 30006KT 10SM CLR 22/11 A3014 RMK AO2 SLP196
T02170111 51014 $





000
SAUS41 KOKX 280155
MTRMTP
METAR KMTP 280154Z AUTO 30003KT 22/17 A3009 RMK AO1 SLP187 T02220167





000
SAUS41 KOKX 280155
MTRMTP
METAR KMTP 280154Z AUTO 30003KT 22/17 A3009 RMK AO1 SLP187 T02220167





000
SAUS41 KOKX 280152
MTRNYC
METAR KNYC 280151Z AUTO VRB04KT 10SM CLR 23/11 A3013 RMK AO2 SLP194
T02280106 $





000
SAUS41 KOKX 280152
MTRNYC
METAR KNYC 280151Z AUTO VRB04KT 10SM CLR 23/11 A3013 RMK AO2 SLP194
T02280106 $





000
SAUS41 KOKX 280055
MTRMTP
METAR KMTP 280054Z AUTO 29004KT 23/17 A3007 RMK AO1 SLP183 T02330172





000
SAUS41 KOKX 280055
MTRMTP
METAR KMTP 280054Z AUTO 29004KT 23/17 A3007 RMK AO1 SLP183 T02330172





000
SAUS41 KOKX 280052
MTRNYC
METAR KNYC 280051Z AUTO 30005KT 10SM CLR 23/10 A3012 RMK AO2 SLP190
T02330100 $





000
SAUS41 KOKX 280052
MTRNYC
METAR KNYC 280051Z AUTO 30005KT 10SM CLR 23/10 A3012 RMK AO2 SLP190
T02330100 $





    US Dept of Commerce
    National Oceanic and Atmospheric Administration
    National Weather Service
    1325 East West Highway
    Silver Spring, MD 20910
    Page Author: NWS Internet Services Team
Disclaimer
Information Quality
Credits
Glossary
Privacy Policy
Freedom of Information Act (FOIA)
About Us
Career Opportunities